Pagrindinis puslapis
METAR-TAF:

METAR-TAF

Oro uostai :

St. Mary's, Aliaska, Jungtinės Amerikos Valstijos

platuma: 62-03N, ilguma: 163-18W, Aukštis: 95 m

Dabartinis oras

Ataskaita buvo paskelbta 32 minutes, ne 20:09 UTC
Vėjas 3 kt iš Pietų/Pietvakarių
Temperatūra -1°C
Drėgmė 93%
Slėgis 1022 hPa
Matomumas: 16.1 km
Apsiniaukę ne aukštis 3700 ft
nežinomas

METAR: PASM 282009Z AUTO 20003KT 10SM UP OVC037 M01/M02 A3018 RMK AO2 UPB09 P0000 FZRANO

Laikas: 12:41 (20:41 UTC)


TAF: trūkstamas

Orai ataskaitas ir orų prognozės (METAR, TAF).

turimą stotys yra geltonos ir raudonos taškus žemėlapyje.

Perkelti pele per norėdami pamatyti stoties vardą.

Tada spustelėkite, norėdami matyti oro stebėjimo ir prognozės.

Norėdami pakeisti žemėlapį: spustelėkite ant žalios mygtukų su juodo kryžiaus žemyn,; žalią mygtuką su brūkšneliu, jei norite nutolinti; arba žalių rodyklių gretimoms žemėlapius.


METAR-TAF: